Time;durP1;ratioP1;P1;durP2;ratioP2;P2;SDS_P1;SDS_P2;PMS_P1;PMS_P2;Temp;Humidity;BMP_temperature;BMP_pressure;BME280_temperature;BME280_humidity;BME280_pressure;Samples;Min_cycle;Max_cycle;Signal;HPM_P1;HPM_P2
2022/01/27 00:04:07;;;;;;;;;;;;;;;2.82;76.53;102286.78;5011523;27;19914;-68
2022/01/27 00:06:34;;;;;;;;;;;;;;;2.84;76.78;102290.22;4995927;27;19908;-71
2022/01/27 00:09:14;;;;;;;;;;;;;;;2.86;76.51;102291.03;5030778;27;19926;-68
2022/01/27 00:11:42;;;;;;;;;;;;;;;2.97;76.30;102294.16;5011932;27;19925;-69
2022/01/27 00:14:07;;;;;;;;;;;;;;;2.89;76.70;102289.19;5011208;27;19963;-68
2022/01/27 00:16:39;;;;;;;;;;;;;;;2.94;76.15;102289.03;5010546;27;20226;-68
2022/01/27 00:19:04;;;;;;;;;;;;;;;2.82;76.39;102282.44;5015094;27;20704;-67
2022/01/27 00:21:30;;;;;;;;;;;;;;;3.00;75.79;102287.97;5022598;27;19911;-69
2022/01/27 00:23:56;;;;;;;;;;;;;;;2.90;76.07;102274.34;5028523;27;19911;-71
2022/01/27 00:26:21;;;;;;;;;;;;;;;2.82;76.16;102276.34;5010753;27;19922;-70
2022/01/27 00:28:46;;;;;;;;;;;;;;;2.77;76.36;102278.25;5029853;27;20035;-69
2022/01/27 00:31:12;;;;;;;;;;;;;;;2.76;75.63;102272.16;5011438;27;19914;-68
2022/01/27 00:33:37;;;;;;;;;;;;;;;2.89;74.93;102272.63;5011367;27;20134;-68
2022/01/27 00:36:02;;;;;;;;;;;;;;;2.69;75.65;102281.09;5029189;27;20295;-69
2022/01/27 00:38:28;;;;;;;;;;;;;;;2.77;75.41;102268.66;5011056;27;20270;-68
2022/01/27 00:40:53;;;;;;;;;;;;;;;2.78;75.35;102269.50;4996180;27;19914;-68
2022/01/27 00:43:18;;;;;;;;;;;;;;;2.71;75.58;102280.16;4991798;27;19903;-71
2022/01/27 00:45:44;;;;;;;;;;;;;;;2.67;75.88;102273.31;5012654;27;19956;-70
2022/01/27 00:48:09;;;;;;;;;;;;;;;2.72;75.65;102266.19;5028705;27;19979;-70
2022/01/27 00:50:36;;;;;;;;;;;;;;;2.64;75.38;102270.78;5036149;27;20711;-69
2022/01/27 00:53:04;;;;;;;;;;;;;;;2.62;75.67;102264.75;5031341;27;19915;-70
2022/01/27 00:55:36;;;;;;;;;;;;;;;2.62;75.91;102269.97;5031937;27;19903;-69
2022/01/27 01:00:41;;;;;;;;;;;;;;;2.44;75.83;102260.09;5031072;27;19904;-70
2022/01/27 01:03:21;;;;;;;;;;;;;;;2.44;75.47;102253.13;5030916;27;20299;-68
2022/01/27 01:06:10;;;;;;;;;;;;;;;2.30;75.79;102252.66;5030310;27;20687;-68
2022/01/27 01:09:27;;;;;;;;;;;;;;;2.30;76.07;102232.63;5047171;27;19929;-70
2022/01/27 01:19:15;;;;;;;;;;;;;;;2.28;76.16;102218.75;5008549;27;19904;-69
2022/01/27 01:29:54;;;;;;;;;;;;;;;2.26;76.71;102199.66;5032382;27;20832;-67
2022/01/27 01:34:52;;;;;;;;;;;;;;;2.37;76.28;102191.50;5029726;27;20041;-69
2022/01/27 01:37:18;;;;;;;;;;;;;;;2.32;76.56;102193.41;5029293;27;20020;-69
2022/01/27 01:39:44;;;;;;;;;;;;;;;2.32;76.42;102191.63;5041284;27;19911;-68
2022/01/27 01:42:10;;;;;;;;;;;;;;;2.36;76.15;102198.47;5008123;27;19912;-68
2022/01/27 01:44:35;;;;;;;;;;;;;;;2.32;75.94;102183.81;5010715;27;19911;-70
2022/01/27 01:47:01;;;;;;;;;;;;;;;2.38;76.08;102188.84;5008337;27;19928;-71
2022/01/27 01:49:26;;;;;;;;;;;;;;;2.30;76.15;102193.47;5026745;27;19980;-70
2022/01/27 01:51:55;;;;;;;;;;;;;;;2.26;76.38;102193.56;5024963;27;20007;-70
2022/01/27 01:54:21;;;;;;;;;;;;;;;2.29;76.39;102189.13;5027480;27;20498;-71
2022/01/27 01:56:46;;;;;;;;;;;;;;;2.42;76.34;102183.53;5026902;27;20000;-70
2022/01/27 01:59:11;;;;;;;;;;;;;;;2.26;76.74;102197.06;5027970;27;19956;-70
2022/01/27 02:01:36;;;;;;;;;;;;;;;2.14;77.13;102179.16;5010948;27;19944;-68
2022/01/27 02:04:06;;;;;;;;;;;;;;;2.15;77.30;102186.09;5028896;27;19903;-69
2022/01/27 02:06:37;;;;;;;;;;;;;;;2.24;76.76;102188.41;5026159;27;19929;-69
2022/01/27 02:19:42;;;;;;;;;;;;;;;2.21;77.38;102178.94;5020132;27;20325;-70
2022/01/27 02:22:08;;;;;;;;;;;;;;;2.10;77.61;102167.09;5006447;28;19908;-67
2022/01/27 02:24:33;;;;;;;;;;;;;;;2.25;77.55;102177.06;5009296;28;20008;-68
2022/01/27 02:26:59;;;;;;;;;;;;;;;2.21;77.47;102175.44;5025264;28;20153;-68
2022/01/27 02:29:24;;;;;;;;;;;;;;;2.35;77.27;102172.41;5024317;28;20935;-69
2022/01/27 02:31:50;;;;;;;;;;;;;;;2.22;77.46;102172.78;5007681;28;19926;-71
2022/01/27 02:34:15;;;;;;;;;;;;;;;2.15;77.76;102159.97;5026829;28;19907;-71
2022/01/27 02:36:40;;;;;;;;;;;;;;;2.15;77.81;102162.59;5025521;28;19909;-67
2022/01/27 02:39:06;;;;;;;;;;;;;;;2.06;78.34;102151.50;5024406;28;19911;-68
2022/01/27 02:41:37;;;;;;;;;;;;;;;2.14;77.96;102148.66;5008067;28;19919;-69
2022/01/27 02:44:03;;;;;;;;;;;;;;;2.12;78.18;102133.97;5006747;28;19911;-67
2022/01/27 02:46:34;;;;;;;;;;;;;;;2.11;78.42;102129.63;5006039;28;20403;-69
2022/01/27 02:48:59;;;;;;;;;;;;;;;2.14;78.58;102130.38;5006938;28;20330;-68
2022/01/27 02:51:25;;;;;;;;;;;;;;;2.19;78.31;102135.47;5029175;27;19916;-70
2022/01/27 02:53:50;;;;;;;;;;;;;;;2.18;78.20;102124.16;5033426;27;19952;-70
2022/01/27 02:56:15;;;;;;;;;;;;;;;2.10;78.28;102120.97;5031618;27;20338;-70
2022/01/27 02:58:40;;;;;;;;;;;;;;;2.16;78.42;102130.34;5033545;27;20322;-67
2022/01/27 03:01:06;;;;;;;;;;;;;;;2.00;78.86;102109.06;5028799;27;20682;-67
2022/01/27 03:03:31;;;;;;;;;;;;;;;2.16;78.66;102105.09;5027297;27;19906;-66
2022/01/27 03:05:56;;;;;;;;;;;;;;;2.12;78.54;102102.63;5021645;27;20335;-71
2022/01/27 03:08:21;;;;;;;;;;;;;;;2.22;78.32;102104.03;5026690;27;20052;-70
2022/01/27 03:10:53;;;;;;;;;;;;;;;2.29;78.40;102100.31;5009723;27;19904;-71
2022/01/27 03:13:18;;;;;;;;;;;;;;;2.25;78.09;102119.59;5012831;27;19945;-70
2022/01/27 03:15:43;;;;;;;;;;;;;;;2.35;77.67;102115.78;4990135;28;19908;-70
2022/01/27 03:18:08;;;;;;;;;;;;;;;2.37;77.48;102114.00;5007687;28;20017;-71
2022/01/27 03:20:34;;;;;;;;;;;;;;;2.31;77.73;102108.94;4995352;28;19918;-68
2022/01/27 03:23:00;;;;;;;;;;;;;;;2.55;77.47;102098.59;5024935;27;19907;-68
2022/01/27 03:25:25;;;;;;;;;;;;;;;2.62;77.05;102096.63;5026224;27;20325;-69
2022/01/27 03:27:50;;;;;;;;;;;;;;;2.36;77.38;102099.22;5028316;27;19968;-70
2022/01/27 03:30:17;;;;;;;;;;;;;;;2.21;78.15;102081.44;5028705;27;20293;-71
2022/01/27 03:32:42;;;;;;;;;;;;;;;2.27;77.92;102078.63;5011144;27;20356;-70
2022/01/27 03:35:07;;;;;;;;;;;;;;;2.31;77.63;102081.97;5027964;27;19914;-67
2022/01/27 03:37:32;;;;;;;;;;;;;;;2.26;77.47;102089.09;5007920;27;20351;-68
2022/01/27 03:39:58;;;;;;;;;;;;;;;2.45;77.12;102089.38;5019534;27;20427;-69
2022/01/27 03:42:24;;;;;;;;;;;;;;;2.28;77.44;102082.94;5036753;27;20016;-69
2022/01/27 03:44:50;;;;;;;;;;;;;;;2.33;76.95;102077.56;5028327;27;20711;-68
2022/01/27 03:47:15;;;;;;;;;;;;;;;2.23;77.55;102069.19;5028273;27;19967;-69
2022/01/27 03:49:40;;;;;;;;;;;;;;;2.50;76.58;102062.19;5011569;27;19923;-68
2022/01/27 03:52:05;;;;;;;;;;;;;;;2.40;76.35;102053.78;5029070;27;19907;-69
2022/01/27 03:54:31;;;;;;;;;;;;;;;2.40;76.15;102051.19;5029417;27;20751;-71
2022/01/27 03:56:57;;;;;;;;;;;;;;;2.28;76.44;102046.38;5027859;27;20127;-69
2022/01/27 03:59:22;;;;;;;;;;;;;;;2.31;76.79;102046.25;5028654;27;20812;-69
2022/01/27 04:01:47;;;;;;;;;;;;;;;2.32;76.55;102047.13;5009338;27;19908;-69
2022/01/27 04:04:14;;;;;;;;;;;;;;;2.34;76.34;102045.31;5018769;27;19912;-69
2022/01/27 04:06:40;;;;;;;;;;;;;;;2.24;76.21;102055.19;5029786;27;19919;-67
2022/01/27 04:09:07;;;;;;;;;;;;;;;2.28;76.70;102048.97;5010157;27;20221;-69
2022/01/27 04:11:32;;;;;;;;;;;;;;;2.47;76.17;102053.56;5011303;27;19912;-68
2022/01/27 04:13:57;;;;;;;;;;;;;;;2.40;76.15;102061.63;4993149;27;19908;-68
2022/01/27 04:16:22;;;;;;;;;;;;;;;2.36;75.61;102052.19;5032116;27;19911;-69
2022/01/27 04:18:47;;;;;;;;;;;;;;;2.52;76.09;102044.69;5030139;27;19915;-66
2022/01/27 04:21:13;;;;;;;;;;;;;;;2.54;76.03;102047.25;5018773;27;19907;-69
2022/01/27 04:23:38;;;;;;;;;;;;;;;2.62;76.08;102050.44;5051111;27;19907;-69
2022/01/27 04:26:05;;;;;;;;;;;;;;;2.58;75.64;102054.06;5049942;27;19903;-68
2022/01/27 04:28:33;;;;;;;;;;;;;;;2.55;75.52;102039.38;5016218;27;19927;-69
2022/01/27 04:31:01;;;;;;;;;;;;;;;2.46;75.72;102044.91;5034033;27;20164;-68
2022/01/27 04:33:29;;;;;;;;;;;;;;;2.51;75.41;102029.94;5051743;27;19912;-69
2022/01/27 04:35:58;;;;;;;;;;;;;;;2.44;75.75;102032.78;5042765;27;19917;-69
2022/01/27 04:38:29;;;;;;;;;;;;;;;2.50;75.31;102029.97;5054495;27;19918;-70
2022/01/27 04:43:42;;;;;;;;;;;;;;;2.44;75.89;102014.50;5070788;27;20893;-68
2022/01/27 04:46:26;;;;;;;;;;;;;;;2.34;76.12;102007.00;5071299;27;20050;-68
2022/01/27 04:48:58;;;;;;;;;;;;;;;2.31;75.89;102003.63;5052942;27;19927;-69
2022/01/27 04:51:24;;;;;;;;;;;;;;;2.33;75.64;102009.66;5034990;27;20870;-70
2022/01/27 04:56:18;;;;;;;;;;;;;;;2.50;74.97;102003.84;5027747;27;19903;-70
2022/01/27 04:58:46;;;;;;;;;;;;;;;2.37;75.17;102004.28;5011042;27;20351;-69
2022/01/27 05:01:12;;;;;;;;;;;;;;;2.24;75.82;101995.13;5015553;27;20344;-70
2022/01/27 05:03:46;;;;;;;;;;;;;;;2.26;75.93;101992.47;5040745;27;20023;-71
2022/01/27 05:06:11;;;;;;;;;;;;;;;2.21;76.24;101987.41;5008858;27;19923;-71
2022/01/27 05:08:36;;;;;;;;;;;;;;;2.33;75.95;101980.94;4993190;27;19927;-70
2022/01/27 05:11:08;;;;;;;;;;;;;;;2.36;75.82;101971.22;5018208;27;19911;-71
2022/01/27 05:13:40;;;;;;;;;;;;;;;2.36;75.37;101958.16;5022547;27;19963;-67
2022/01/27 05:16:06;;;;;;;;;;;;;;;2.28;75.52;101954.09;5033968;27;19967;-70
2022/01/27 05:18:31;;;;;;;;;;;;;;;2.21;75.67;101945.63;5020545;27;19903;-70
2022/01/27 05:20:56;;;;;;;;;;;;;;;2.32;76.09;101942.66;5028167;27;20281;-70
2022/01/27 05:23:21;;;;;;;;;;;;;;;2.23;75.98;101938.59;5048087;27;20451;-70
2022/01/27 05:25:47;;;;;;;;;;;;;;;2.28;76.04;101926.22;5045355;27;20009;-71
2022/01/27 05:28:12;;;;;;;;;;;;;;;2.26;76.22;101935.88;5006382;27;20023;-71
2022/01/27 05:30:37;;;;;;;;;;;;;;;2.16;76.44;101932.72;5011492;27;20013;-70
2022/01/27 05:33:02;;;;;;;;;;;;;;;2.20;76.25;101923.88;5049826;27;19915;-67
2022/01/27 05:35:28;;;;;;;;;;;;;;;2.27;76.22;101919.31;5049427;27;20725;-68
2022/01/27 05:37:53;;;;;;;;;;;;;;;2.31;76.20;101926.09;5019966;27;20106;-68
2022/01/27 05:40:18;;;;;;;;;;;;;;;2.32;76.12;101919.13;5024106;27;19911;-71
2022/01/27 05:42:43;;;;;;;;;;;;;;;2.31;76.24;101923.50;5011698;27;20024;-68
2022/01/27 05:45:09;;;;;;;;;;;;;;;2.31;76.46;101918.25;5022983;27;20668;-68
2022/01/27 05:47:34;;;;;;;;;;;;;;;2.29;76.57;101906.19;5023091;27;20455;-68
2022/01/27 05:49:59;;;;;;;;;;;;;;;2.30;76.59;101915.72;5040592;27;19990;-68
2022/01/27 05:52:24;;;;;;;;;;;;;;;2.41;76.32;101913.56;5022907;27;20012;-67
2022/01/27 05:54:49;;;;;;;;;;;;;;;2.46;75.83;101913.44;5030981;27;19955;-68
2022/01/27 05:57:15;;;;;;;;;;;;;;;2.40;75.72;101896.22;5035179;27;20548;-70
2022/01/27 05:59:40;;;;;;;;;;;;;;;2.35;75.83;101898.13;5048163;27;19930;-68
2022/01/27 06:02:05;;;;;;;;;;;;;;;2.34;76.36;101894.69;5040182;27;20853;-67
2022/01/27 06:04:30;;;;;;;;;;;;;;;2.31;76.45;101899.97;5026429;27;19969;-68
2022/01/27 06:06:56;;;;;;;;;;;;;;;2.34;76.43;101892.06;5011663;27;20725;-68
2022/01/27 06:09:21;;;;;;;;;;;;;;;2.38;76.37;101888.44;5047508;27;20338;-69
2022/01/27 06:11:46;;;;;;;;;;;;;;;2.45;76.54;101880.38;5027039;27;20795;-68
2022/01/27 06:14:11;;;;;;;;;;;;;;;2.38;76.58;101882.34;5050533;27;19971;-68
2022/01/27 06:16:37;;;;;;;;;;;;;;;2.47;76.53;101878.53;5055955;27;20523;-70
2022/01/27 06:19:04;;;;;;;;;;;;;;;2.49;76.61;101874.13;5031502;27;19964;-70
2022/01/27 06:21:30;;;;;;;;;;;;;;;2.40;76.22;101857.88;5031009;27;20636;-70
2022/01/27 06:23:55;;;;;;;;;;;;;;;2.43;76.75;101853.47;5034952;27;20043;-69
2022/01/27 06:26:21;;;;;;;;;;;;;;;2.46;76.99;101855.94;5048798;27;19980;-68
2022/01/27 06:28:46;;;;;;;;;;;;;;;2.51;77.05;101860.09;5033667;27;20352;-70
2022/01/27 06:31:11;;;;;;;;;;;;;;;2.55;76.89;101855.59;5032432;27;19919;-69
2022/01/27 06:33:37;;;;;;;;;;;;;;;2.58;76.84;101850.25;5022891;27;19907;-70
2022/01/27 06:36:02;;;;;;;;;;;;;;;2.70;76.63;101839.34;5016811;27;19911;-69
2022/01/27 06:38:27;;;;;;;;;;;;;;;2.64;76.65;101843.97;5036071;27;20091;-70
2022/01/27 06:40:52;;;;;;;;;;;;;;;2.63;76.88;101848.31;5028864;27;20008;-69
2022/01/27 06:43:18;;;;;;;;;;;;;;;2.67;77.04;101834.22;5041642;27;20657;-69
2022/01/27 06:45:43;;;;;;;;;;;;;;;2.70;77.13;101831.50;5026286;27;20850;-68
2022/01/27 06:48:08;;;;;;;;;;;;;;;2.79;76.66;101824.22;5017838;27;20016;-70
2022/01/27 06:50:36;;;;;;;;;;;;;;;2.72;77.20;101829.69;5015863;27;19912;-68
2022/01/27 06:53:01;;;;;;;;;;;;;;;2.79;77.19;101816.38;5011723;27;19911;-67
2022/01/27 06:55:27;;;;;;;;;;;;;;;2.86;76.86;101823.94;5013911;27;19914;-68
2022/01/27 06:57:52;;;;;;;;;;;;;;;2.91;76.66;101803.66;5018757;27;19911;-68
2022/01/27 07:00:17;;;;;;;;;;;;;;;2.82;77.43;101811.00;5016365;27;19974;-68
2022/01/27 07:02:42;;;;;;;;;;;;;;;2.85;77.28;101811.75;5037991;27;19903;-66
2022/01/27 07:05:08;;;;;;;;;;;;;;;2.88;77.31;101800.34;5028572;27;19972;-69
2022/01/27 07:07:33;;;;;;;;;;;;;;;2.92;77.03;101804.53;5035981;27;20458;-67
2022/01/27 07:09:58;;;;;;;;;;;;;;;2.93;77.19;101806.22;5023404;27;20024;-69
2022/01/27 07:12:23;;;;;;;;;;;;;;;2.92;77.53;101815.00;5026777;27;20144;-68
2022/01/27 07:14:49;;;;;;;;;;;;;;;2.97;77.49;101813.03;5051305;27;19911;-69
2022/01/27 07:17:17;;;;;;;;;;;;;;;2.98;77.64;101812.13;5036437;27;19907;-67
2022/01/27 07:19:42;;;;;;;;;;;;;;;3.05;77.94;101808.34;5016768;27;19972;-68
2022/01/27 07:22:07;;;;;;;;;;;;;;;3.06;77.85;101803.94;5014321;27;20020;-68
2022/01/27 07:24:32;;;;;;;;;;;;;;;3.11;77.70;101809.84;5037576;27;19915;-69
2022/01/27 07:26:57;;;;;;;;;;;;;;;3.12;78.06;101803.72;5049689;27;20418;-67
2022/01/27 07:29:23;;;;;;;;;;;;;;;3.16;78.05;101807.91;5039164;27;20758;-67
2022/01/27 07:31:48;;;;;;;;;;;;;;;3.21;78.27;101799.88;5033951;27;20356;-69
2022/01/27 07:34:13;;;;;;;;;;;;;;;3.19;78.10;101799.94;5036022;27;20672;-68
2022/01/27 07:36:40;;;;;;;;;;;;;;;3.25;78.26;101798.84;5034291;27;19974;-69
2022/01/27 07:39:12;;;;;;;;;;;;;;;3.27;78.19;101799.59;5036025;27;20003;-67
2022/01/27 07:41:37;;;;;;;;;;;;;;;3.33;78.15;101788.91;5008295;27;19976;-68
2022/01/27 07:44:02;;;;;;;;;;;;;;;3.38;77.87;101784.31;5016936;27;19907;-68
2022/01/27 07:46:27;;;;;;;;;;;;;;;3.40;78.36;101787.72;5034691;27;20202;-68
2022/01/27 07:48:53;;;;;;;;;;;;;;;3.42;78.69;101785.88;5034567;27;19930;-68
2022/01/27 07:51:18;;;;;;;;;;;;;;;3.49;78.20;101783.88;5030915;27;20147;-67
2022/01/27 07:53:43;;;;;;;;;;;;;;;3.61;78.04;101775.50;5032087;27;20271;-68
2022/01/27 07:56:08;;;;;;;;;;;;;;;3.65;78.00;101781.44;5032435;27;20344;-67
2022/01/27 07:58:38;;;;;;;;;;;;;;;3.75;77.76;101777.53;5045989;27;20283;-69
2022/01/27 08:01:03;;;;;;;;;;;;;;;3.74;77.34;101785.44;5015587;27;19995;-68
2022/01/27 08:03:28;;;;;;;;;;;;;;;3.74;78.09;101775.81;5056170;27;20035;-68
2022/01/27 08:05:54;;;;;;;;;;;;;;;3.78;77.73;101774.75;5033523;27;20401;-69
2022/01/27 08:08:19;;;;;;;;;;;;;;;3.88;77.87;101772.59;5054870;27;20023;-68
2022/01/27 08:10:45;;;;;;;;;;;;;;;3.93;77.66;101772.38;5050668;27;20777;-67
2022/01/27 08:13:10;;;;;;;;;;;;;;;3.96;77.69;101772.25;5052339;27;19910;-68
2022/01/27 08:15:35;;;;;;;;;;;;;;;4.01;78.10;101778.13;5036315;27;20903;-67
2022/01/27 08:18:01;;;;;;;;;;;;;;;4.01;78.18;101772.91;5036814;27;19944;-67
2022/01/27 08:20:26;;;;;;;;;;;;;;;4.01;78.67;101777.28;5017516;27;20200;-69
2022/01/27 08:22:54;;;;;;;;;;;;;;;4.15;78.30;101772.28;5026800;27;19918;-68
2022/01/27 08:25:20;;;;;;;;;;;;;;;4.19;78.68;101772.97;5027395;27;20729;-68
2022/01/27 08:27:47;;;;;;;;;;;;;;;4.35;79.28;101770.50;5021695;27;20351;-69
2022/01/27 08:30:15;;;;;;;;;;;;;;;4.50;79.23;101774.16;5050649;27;20043;-67
2022/01/27 08:32:47;;;;;;;;;;;;;;;4.56;79.90;101784.38;5032758;27;20012;-68
2022/01/27 08:35:16;;;;;;;;;;;;;;;4.57;79.85;101772.97;5016416;27;20646;-67
2022/01/27 08:37:41;;;;;;;;;;;;;;;4.64;79.70;101777.03;5011032;27;20128;-66
2022/01/27 08:40:07;;;;;;;;;;;;;;;4.71;79.89;101775.78;5008399;27;20608;-67
2022/01/27 08:42:32;;;;;;;;;;;;;;;4.71;79.97;101782.78;5010651;27;19918;-67
2022/01/27 08:44:57;;;;;;;;;;;;;;;4.84;79.45;101788.31;5008116;27;20199;-67
2022/01/27 08:47:23;;;;;;;;;;;;;;;5.05;78.93;101779.41;5065243;27;19983;-67
2022/01/27 08:49:48;;;;;;;;;;;;;;;5.03;79.36;101783.88;5074384;27;19930;-66
2022/01/27 08:52:13;;;;;;;;;;;;;;;5.06;79.63;101773.25;5032723;27;19908;-69
2022/01/27 08:54:38;;;;;;;;;;;;;;;5.02;80.87;101768.19;5032580;27;19922;-67
2022/01/27 08:57:04;;;;;;;;;;;;;;;5.04;81.52;101774.25;5014220;27;19903;-67
2022/01/27 08:59:29;;;;;;;;;;;;;;;5.19;81.34;101767.38;5017880;27;20774;-66
2022/01/27 09:01:54;;;;;;;;;;;;;;;5.08;82.68;101765.28;5024088;27;20261;-69
2022/01/27 09:04:19;;;;;;;;;;;;;;;4.99;83.47;101761.31;5014329;27;20541;-69
2022/01/27 09:06:44;;;;;;;;;;;;;;;5.05;83.60;101763.66;5012015;27;20188;-69
2022/01/27 09:09:10;;;;;;;;;;;;;;;5.02;84.17;101776.94;5036420;27;20031;-68
2022/01/27 09:11:35;;;;;;;;;;;;;;;4.96;84.96;101777.22;5050323;27;19971;-67
2022/01/27 09:14:00;;;;;;;;;;;;;;;5.01;84.36;101775.22;5019990;27;20910;-69
2022/01/27 09:16:27;;;;;;;;;;;;;;;4.92;84.79;101767.81;5027459;27;19915;-67
2022/01/27 09:18:57;;;;;;;;;;;;;;;4.88;84.73;101768.88;5034892;27;19903;-68
2022/01/27 09:21:26;;;;;;;;;;;;;;;4.97;85.01;101768.44;5032967;27;19922;-69
2022/01/27 09:23:52;;;;;;;;;;;;;;;4.97;84.84;101757.94;5050333;27;19911;-69
2022/01/27 09:26:41;;;;;;;;;;;;;;;4.97;84.96;101763.19;5034729;27;19903;-68
2022/01/27 09:29:06;;;;;;;;;;;;;;;4.93;86.26;101772.13;5036134;27;20347;-67
2022/01/27 09:31:31;;;;;;;;;;;;;;;4.95;86.59;101762.41;5031949;27;19987;-68
2022/01/27 09:33:57;;;;;;;;;;;;;;;5.04;86.11;101761.13;5017900;27;20207;-67
2022/01/27 09:36:22;;;;;;;;;;;;;;;4.98;86.77;101764.91;5013690;27;20412;-66
2022/01/27 09:38:47;;;;;;;;;;;;;;;4.82;87.34;101760.41;5032326;27;20271;-67
2022/01/27 09:41:14;;;;;;;;;;;;;;;4.82;87.92;101757.78;5054596;27;20743;-66
2022/01/27 09:43:40;;;;;;;;;;;;;;;4.82;88.69;101770.88;5027731;27;19904;-67
2022/01/27 09:46:07;;;;;;;;;;;;;;;4.86;89.28;101776.81;5016222;27;20044;-67
2022/01/27 09:48:39;;;;;;;;;;;;;;;4.92;88.73;101770.41;5024572;27;19912;-67
2022/01/27 09:51:23;;;;;;;;;;;;;;;4.86;89.38;101778.59;5001901;27;19912;-69
2022/01/27 09:53:55;;;;;;;;;;;;;;;4.86;89.56;101781.22;5037115;27;19918;-66
2022/01/27 09:56:20;;;;;;;;;;;;;;;4.74;90.79;101772.19;5034851;27;19907;-68
2022/01/27 09:58:46;;;;;;;;;;;;;;;4.81;90.81;101763.94;5039545;27;19913;-70
2022/01/27 10:01:11;;;;;;;;;;;;;;;4.74;91.08;101767.78;5032977;27;19961;-68
2022/01/27 10:03:52;;;;;;;;;;;;;;;4.70;91.65;101768.84;5025390;27;20068;-67
2022/01/27 10:06:18;;;;;;;;;;;;;;;4.72;92.14;101768.78;5036794;27;19907;-67
2022/01/27 10:08:43;;;;;;;;;;;;;;;4.74;92.29;101772.19;5025921;27;19924;-69
2022/01/27 10:11:15;;;;;;;;;;;;;;;4.87;92.41;101767.19;5005272;27;19971;-70
2022/01/27 10:13:43;;;;;;;;;;;;;;;4.91;92.15;101768.75;5030201;27;19923;-70
2022/01/27 10:16:08;;;;;;;;;;;;;;;4.93;92.45;101759.00;5007931;27;20880;-69
2022/01/27 10:18:36;;;;;;;;;;;;;;;4.90;92.22;101759.16;5002687;27;20020;-67
2022/01/27 10:21:05;;;;;;;;;;;;;;;4.88;92.71;101755.75;5032818;27;20012;-68
2022/01/27 10:23:33;;;;;;;;;;;;;;;4.89;93.05;101754.84;5019468;27;19979;-67
2022/01/27 10:26:24;;;;;;;;;;;;;;;4.96;92.67;101751.00;5031606;27;20065;-67
2022/01/27 10:29:08;;;;;;;;;;;;;;;4.90;93.05;101757.38;5027309;27;19927;-67
2022/01/27 10:31:35;;;;;;;;;;;;;;;4.94;93.31;101747.59;5014860;28;20487;-67
2022/01/27 10:34:04;;;;;;;;;;;;;;;4.85;93.49;101740.19;5014104;28;20008;-69
2022/01/27 10:36:31;;;;;;;;;;;;;;;5.05;93.09;101740.06;5035971;27;20011;-69
2022/01/27 10:39:00;;;;;;;;;;;;;;;4.94;92.96;101740.56;5024654;27;20473;-68
2022/01/27 10:41:25;;;;;;;;;;;;;;;5.02;93.46;101742.84;5030908;27;19911;-69
2022/01/27 10:43:54;;;;;;;;;;;;;;;4.97;93.50;101737.78;5032187;28;20343;-69
2022/01/27 10:46:26;;;;;;;;;;;;;;;5.05;93.38;101740.06;5014934;27;19923;-67
2022/01/27 10:49:01;;;;;;;;;;;;;;;5.03;93.70;101730.56;5017984;28;19924;-69
2022/01/27 10:51:31;;;;;;;;;;;;;;;5.05;93.51;101739.19;5041351;27;19907;-68
2022/01/27 10:54:01;;;;;;;;;;;;;;;5.02;93.15;101731.47;5030202;27;19911;-69
2022/01/27 10:56:27;;;;;;;;;;;;;;;4.99;93.34;101729.84;5032230;27;19911;-68
2022/01/27 10:58:52;;;;;;;;;;;;;;;5.06;93.05;101726.03;5052820;27;19903;-67
2022/01/27 11:01:24;;;;;;;;;;;;;;;5.05;94.12;101721.69;5016610;27;21001;-68
2022/01/27 11:03:50;;;;;;;;;;;;;;;5.10;94.12;101727.53;5054221;27;19911;-67
2022/01/27 11:06:15;;;;;;;;;;;;;;;5.21;92.93;101720.91;5022396;28;20258;-66
2022/01/27 11:08:42;;;;;;;;;;;;;;;5.17;93.42;101728.09;5033540;28;20368;-68
2022/01/27 11:11:08;;;;;;;;;;;;;;;5.16;93.23;101719.38;5040277;27;19904;-68
2022/01/27 11:13:35;;;;;;;;;;;;;;;5.24;93.35;101723.38;5037270;27;19922;-67
2022/01/27 11:16:00;;;;;;;;;;;;;;;5.31;92.99;101716.91;5025947;27;19967;-68
2022/01/27 11:18:28;;;;;;;;;;;;;;;5.16;93.79;101722.00;5046744;27;20171;-68
2022/01/27 11:20:58;;;;;;;;;;;;;;;5.23;93.77;101705.94;5071325;27;20657;-69
2022/01/27 11:25:54;;;;;;;;;;;;;;;5.33;93.71;101701.94;5035120;27;19979;-69
2022/01/27 11:28:20;;;;;;;;;;;;;;;5.36;93.91;101701.75;5036247;27;20453;-69
2022/01/27 11:30:58;;;;;;;;;;;;;;;5.21;94.83;101703.38;5029127;27;20429;-68
2022/01/27 11:33:33;;;;;;;;;;;;;;;5.21;94.88;101697.31;5016930;27;19907;-68
2022/01/27 11:36:07;;;;;;;;;;;;;;;5.27;95.24;101691.72;5044758;27;20094;-67
2022/01/27 11:38:32;;;;;;;;;;;;;;;5.32;95.38;101681.84;5053697;27;19951;-67
2022/01/27 11:40:58;;;;;;;;;;;;;;;5.33;95.46;101683.56;5051946;27;19907;-68
2022/01/27 11:43:33;;;;;;;;;;;;;;;5.34;94.60;101672.09;5043267;27;19904;-68
2022/01/27 11:45:59;;;;;;;;;;;;;;;5.42;94.54;101672.56;5027328;27;20039;-68
2022/01/27 11:48:26;;;;;;;;;;;;;;;5.37;94.59;101674.56;5042180;27;19907;-67
2022/01/27 11:51:09;;;;;;;;;;;;;;;5.42;94.60;101654.19;5044594;27;19911;-67
2022/01/27 11:53:40;;;;;;;;;;;;;;;5.43;94.31;101669.03;5050403;27;19968;-68
2022/01/27 11:56:06;;;;;;;;;;;;;;;5.48;94.23;101664.34;5061314;27;20008;-68
2022/01/27 11:58:38;;;;;;;;;;;;;;;5.52;93.97;101672.94;5047780;27;19903;-68
2022/01/27 12:01:04;;;;;;;;;;;;;;;5.48;93.60;101650.38;5002004;27;19915;-67
2022/01/27 12:03:29;;;;;;;;;;;;;;;5.57;93.75;101663.03;5049444;27;19915;-68
2022/01/27 12:06:13;;;;;;;;;;;;;;;5.50;93.94;101662.50;5010379;27;19992;-67
2022/01/27 12:08:38;;;;;;;;;;;;;;;5.52;93.48;101675.56;5057283;27;20721;-68
2022/01/27 12:11:07;;;;;;;;;;;;;;;5.56;93.04;101669.22;5025714;27;19915;-68
2022/01/27 12:13:40;;;;;;;;;;;;;;;5.59;93.45;101663.78;5053890;27;19911;-70
2022/01/27 12:19:02;;;;;;;;;;;;;;;5.57;93.70;101668.28;5065661;27;20701;-68
2022/01/27 12:21:30;;;;;;;;;;;;;;;5.58;94.43;101664.72;5042874;27;20404;-68
2022/01/27 12:24:11;;;;;;;;;;;;;;;5.67;93.71;101647.66;5059396;27;20031;-67
2022/01/27 12:26:48;;;;;;;;;;;;;;;5.58;94.21;101648.13;5047995;27;20830;-68
2022/01/27 12:29:20;;;;;;;;;;;;;;;5.64;94.85;101647.78;5052139;27;20024;-69
2022/01/27 12:31:45;;;;;;;;;;;;;;;5.65;94.77;101641.63;5039041;27;19919;-67
2022/01/27 12:34:11;;;;;;;;;;;;;;;5.76;94.39;101638.41;5011725;27;19911;-68
2022/01/27 12:36:37;;;;;;;;;;;;;;;5.56;95.04;101644.75;5046433;27;19903;-68
2022/01/27 12:39:02;;;;;;;;;;;;;;;5.52;95.29;101636.19;5039762;27;19914;-68
2022/01/27 12:41:27;;;;;;;;;;;;;;;5.48;95.73;101627.59;5033843;27;19907;-68
2022/01/27 12:43:53;;;;;;;;;;;;;;;5.56;96.24;101626.38;5027244;27;19903;-67
2022/01/27 12:46:18;;;;;;;;;;;;;;;5.58;96.47;101621.88;5065748;27;19919;-69
2022/01/27 12:48:47;;;;;;;;;;;;;;;5.68;95.89;101620.44;5064810;27;20601;-67
2022/01/27 12:51:12;;;;;;;;;;;;;;;5.65;95.80;101623.22;5051030;27;19923;-67
2022/01/27 12:53:37;;;;;;;;;;;;;;;5.61;96.42;101622.56;5036187;27;19960;-68
2022/01/27 12:56:07;;;;;;;;;;;;;;;5.78;95.20;101619.03;5045973;27;20016;-66
2022/01/27 12:58:32;;;;;;;;;;;;;;;5.78;94.63;101616.41;5064590;27;20035;-69
2022/01/27 13:00:58;;;;;;;;;;;;;;;5.78;94.07;101626.03;5062626;27;19907;-69
2022/01/27 13:03:24;;;;;;;;;;;;;;;5.91;94.22;101618.31;5066239;27;20128;-69
2022/01/27 13:05:50;;;;;;;;;;;;;;;5.84;94.02;101604.69;5037554;27;19907;-67
2022/01/27 13:08:18;;;;;;;;;;;;;;;5.82;94.09;101607.41;5017343;27;20016;-69
2022/01/27 13:10:48;;;;;;;;;;;;;;;5.78;93.99;101602.41;5034291;27;19923;-68
2022/01/27 13:13:18;;;;;;;;;;;;;;;5.90;93.81;101606.16;5023112;27;19912;-67
2022/01/27 13:15:44;;;;;;;;;;;;;;;5.80;94.65;101609.25;5024022;27;19945;-67
2022/01/27 13:18:16;;;;;;;;;;;;;;;5.79;95.07;101602.31;5040828;27;19900;-68
2022/01/27 13:20:45;;;;;;;;;;;;;;;5.81;94.96;101589.97;5041009;27;20677;-67
2022/01/27 13:25:40;;;;;;;;;;;;;;;5.80;94.72;101604.00;5042721;27;20622;-67
2022/01/27 13:28:06;;;;;;;;;;;;;;;5.81;94.50;101596.97;5028146;27;19953;-67
2022/01/27 13:30:31;;;;;;;;;;;;;;;5.85;94.91;101591.47;5047010;27;20700;-68
2022/01/27 13:32:57;;;;;;;;;;;;;;;5.91;95.02;101586.81;5059018;27;19960;-66
2022/01/27 13:35:22;;;;;;;;;;;;;;;6.04;94.24;101585.22;5065414;27;20024;-69